sensor_id;sensor_type;location;lat;lon;timestamp;P1;durP1;ratioP1;P2;durP2;ratioP2
77868;SDS011;67231;59.144;37.934;2023-12-04T00:00:08;7.85;;;2.97;;
77868;SDS011;67231;59.144;37.934;2023-12-04T00:02:40;9.25;;;3.40;;
77868;SDS011;67231;59.144;37.934;2023-12-04T00:05:07;6.72;;;2.58;;
77868;SDS011;67231;59.144;37.934;2023-12-04T00:07:34;5.93;;;2.83;;
77868;SDS011;67231;59.144;37.934;2023-12-04T00:10:00;10.07;;;3.55;;
77868;SDS011;67231;59.144;37.934;2023-12-04T00:12:27;5.13;;;2.00;;
77868;SDS011;67231;59.144;37.934;2023-12-04T00:14:53;7.15;;;3.30;;
77868;SDS011;67231;59.144;37.934;2023-12-04T00:17:19;7.40;;;3.20;;
77868;SDS011;67231;59.144;37.934;2023-12-04T00:19:46;7.18;;;3.30;;
77868;SDS011;67231;59.144;37.934;2023-12-04T00:22:12;7.50;;;2.83;;
77868;SDS011;67231;59.144;37.934;2023-12-04T00:24:39;5.45;;;2.78;;
77868;SDS011;67231;59.144;37.934;2023-12-04T00:27:05;7.13;;;2.95;;
77868;SDS011;67231;59.144;37.934;2023-12-04T00:29:32;7.60;;;2.70;;
77868;SDS011;67231;59.144;37.934;2023-12-04T00:31:58;3.80;;;2.05;;
77868;SDS011;67231;59.144;37.934;2023-12-04T00:34:24;6.47;;;2.70;;
77868;SDS011;67231;59.144;37.934;2023-12-04T00:36:51;6.15;;;2.70;;
77868;SDS011;67231;59.144;37.934;2023-12-04T00:39:17;6.45;;;2.92;;
77868;SDS011;67231;59.144;37.934;2023-12-04T00:41:43;6.32;;;2.92;;
77868;SDS011;67231;59.144;37.934;2023-12-04T00:44:10;7.28;;;2.75;;
77868;SDS011;67231;59.144;37.934;2023-12-04T00:46:36;5.85;;;3.08;;
77868;SDS011;67231;59.144;37.934;2023-12-04T00:49:02;7.70;;;3.03;;
77868;SDS011;67231;59.144;37.934;2023-12-04T00:51:31;5.30;;;2.20;;
77868;SDS011;67231;59.144;37.934;2023-12-04T00:54:03;6.32;;;2.92;;
77868;SDS011;67231;59.144;37.934;2023-12-04T00:56:29;6.20;;;2.78;;
77868;SDS011;67231;59.144;37.934;2023-12-04T00:58:56;5.40;;;2.78;;
77868;SDS011;67231;59.144;37.934;2023-12-04T01:01:22;7.55;;;3.20;;
77868;SDS011;67231;59.144;37.934;2023-12-04T01:03:48;7.22;;;2.85;;
77868;SDS011;67231;59.144;37.934;2023-12-04T01:06:21;7.63;;;3.22;;
77868;SDS011;67231;59.144;37.934;2023-12-04T01:08:52;6.63;;;3.35;;
77868;SDS011;67231;59.144;37.934;2023-12-04T01:11:19;6.47;;;2.90;;
77868;SDS011;67231;59.144;37.934;2023-12-04T01:13:46;5.18;;;2.30;;
77868;SDS011;67231;59.144;37.934;2023-12-04T01:16:12;4.45;;;2.47;;
77868;SDS011;67231;59.144;37.934;2023-12-04T01:18:39;5.18;;;2.80;;
77868;SDS011;67231;59.144;37.934;2023-12-04T01:21:06;7.35;;;2.70;;
77868;SDS011;67231;59.144;37.934;2023-12-04T01:23:35;6.53;;;2.92;;
77868;SDS011;67231;59.144;37.934;2023-12-04T01:26:02;5.05;;;2.22;;
77868;SDS011;67231;59.144;37.934;2023-12-04T01:28:29;9.40;;;3.20;;
77868;SDS011;67231;59.144;37.934;2023-12-04T01:30:55;9.95;;;3.03;;
77868;SDS011;67231;59.144;37.934;2023-12-04T01:33:21;8.18;;;3.20;;
77868;SDS011;67231;59.144;37.934;2023-12-04T01:35:48;6.57;;;3.20;;
77868;SDS011;67231;59.144;37.934;2023-12-04T01:38:14;8.00;;;3.28;;
77868;SDS011;67231;59.144;37.934;2023-12-04T01:40:41;7.30;;;2.42;;
77868;SDS011;67231;59.144;37.934;2023-12-04T01:43:07;7.13;;;3.08;;
77868;SDS011;67231;59.144;37.934;2023-12-04T01:45:33;9.10;;;3.05;;
77868;SDS011;67231;59.144;37.934;2023-12-04T01:48:00;7.97;;;3.03;;
77868;SDS011;67231;59.144;37.934;2023-12-04T01:50:28;6.88;;;3.10;;
77868;SDS011;67231;59.144;37.934;2023-12-04T01:52:54;9.02;;;3.13;;
77868;SDS011;67231;59.144;37.934;2023-12-04T01:55:21;6.00;;;3.08;;
77868;SDS011;67231;59.144;37.934;2023-12-04T01:57:48;8.30;;;2.95;;
77868;SDS011;67231;59.144;37.934;2023-12-04T02:00:14;6.05;;;2.72;;
77868;SDS011;67231;59.144;37.934;2023-12-04T02:02:41;4.85;;;2.53;;
77868;SDS011;67231;59.144;37.934;2023-12-04T02:05:08;8.80;;;2.90;;
77868;SDS011;67231;59.144;37.934;2023-12-04T02:07:35;4.60;;;2.25;;
77868;SDS011;67231;59.144;37.934;2023-12-04T02:10:03;5.72;;;2.63;;
77868;SDS011;67231;59.144;37.934;2023-12-04T02:14:59;7.75;;;2.17;;
77868;SDS011;67231;59.144;37.934;2023-12-04T02:17:26;8.50;;;2.63;;
77868;SDS011;67231;59.144;37.934;2023-12-04T02:19:55;6.13;;;2.25;;
77868;SDS011;67231;59.144;37.934;2023-12-04T02:22:21;7.20;;;2.85;;
77868;SDS011;67231;59.144;37.934;2023-12-04T02:24:47;8.73;;;3.22;;
77868;SDS011;67231;59.144;37.934;2023-12-04T02:27:18;6.85;;;3.08;;
77868;SDS011;67231;59.144;37.934;2023-12-04T02:30:01;8.40;;;3.38;;
77868;SDS011;67231;59.144;37.934;2023-12-04T02:32:31;4.80;;;1.90;;
77868;SDS011;67231;59.144;37.934;2023-12-04T02:35:05;5.68;;;2.53;;
77868;SDS011;67231;59.144;37.934;2023-12-04T02:37:34;8.63;;;3.25;;
77868;SDS011;67231;59.144;37.934;2023-12-04T02:40:01;5.78;;;2.63;;
77868;SDS011;67231;59.144;37.934;2023-12-04T02:42:29;5.13;;;2.35;;
77868;SDS011;67231;59.144;37.934;2023-12-04T02:44:55;3.88;;;1.98;;
77868;SDS011;67231;59.144;37.934;2023-12-04T02:47:22;6.72;;;2.63;;
77868;SDS011;67231;59.144;37.934;2023-12-04T02:49:48;6.82;;;2.70;;
77868;SDS011;67231;59.144;37.934;2023-12-04T02:52:14;7.93;;;2.97;;
77868;SDS011;67231;59.144;37.934;2023-12-04T02:54:41;5.80;;;2.50;;
77868;SDS011;67231;59.144;37.934;2023-12-04T02:57:07;7.28;;;2.70;;
77868;SDS011;67231;59.144;37.934;2023-12-04T02:59:33;7.07;;;2.90;;
77868;SDS011;67231;59.144;37.934;2023-12-04T03:01:59;7.35;;;3.05;;
77868;SDS011;67231;59.144;37.934;2023-12-04T03:04:27;8.63;;;3.75;;
77868;SDS011;67231;59.144;37.934;2023-12-04T03:06:55;12.70;;;4.32;;
77868;SDS011;67231;59.144;37.934;2023-12-04T03:09:22;9.95;;;3.85;;
77868;SDS011;67231;59.144;37.934;2023-12-04T03:11:48;8.50;;;3.67;;
77868;SDS011;67231;59.144;37.934;2023-12-04T03:14:14;8.90;;;3.80;;
77868;SDS011;67231;59.144;37.934;2023-12-04T03:16:41;11.05;;;3.55;;
77868;SDS011;67231;59.144;37.934;2023-12-04T03:19:07;4.75;;;2.40;;
77868;SDS011;67231;59.144;37.934;2023-12-04T03:21:34;8.32;;;3.45;;
77868;SDS011;67231;59.144;37.934;2023-12-04T03:24:00;7.50;;;3.05;;
77868;SDS011;67231;59.144;37.934;2023-12-04T03:26:26;6.70;;;2.58;;
77868;SDS011;67231;59.144;37.934;2023-12-04T03:28:54;7.53;;;3.00;;
77868;SDS011;67231;59.144;37.934;2023-12-04T03:31:21;10.65;;;3.35;;
77868;SDS011;67231;59.144;37.934;2023-12-04T03:33:47;10.95;;;3.97;;
77868;SDS011;67231;59.144;37.934;2023-12-04T03:36:14;9.95;;;4.10;;
77868;SDS011;67231;59.144;37.934;2023-12-04T03:38:40;4.07;;;2.13;;
77868;SDS011;67231;59.144;37.934;2023-12-04T03:41:15;9.52;;;3.90;;
77868;SDS011;67231;59.144;37.934;2023-12-04T03:43:42;7.38;;;3.63;;
77868;SDS011;67231;59.144;37.934;2023-12-04T03:46:09;6.90;;;3.05;;
77868;SDS011;67231;59.144;37.934;2023-12-04T03:48:35;8.38;;;3.30;;
77868;SDS011;67231;59.144;37.934;2023-12-04T03:51:02;6.03;;;2.47;;
77868;SDS011;67231;59.144;37.934;2023-12-04T03:53:28;9.10;;;3.35;;
77868;SDS011;67231;59.144;37.934;2023-12-04T03:55:57;7.55;;;3.15;;
77868;SDS011;67231;59.144;37.934;2023-12-04T03:58:24;7.45;;;3.83;;
77868;SDS011;67231;59.144;37.934;2023-12-04T04:00:53;8.63;;;3.05;;
77868;SDS011;67231;59.144;37.934;2023-12-04T04:03:19;9.32;;;3.35;;
77868;SDS011;67231;59.144;37.934;2023-12-04T04:05:45;8.90;;;3.60;;
77868;SDS011;67231;59.144;37.934;2023-12-04T04:08:12;5.25;;;2.35;;
77868;SDS011;67231;59.144;37.934;2023-12-04T04:10:38;7.97;;;3.10;;
77868;SDS011;67231;59.144;37.934;2023-12-04T04:13:04;10.43;;;3.45;;
77868;SDS011;67231;59.144;37.934;2023-12-04T04:15:31;7.25;;;3.47;;
77868;SDS011;67231;59.144;37.934;2023-12-04T04:17:58;8.25;;;3.60;;
77868;SDS011;67231;59.144;37.934;2023-12-04T04:20:24;8.50;;;3.17;;
77868;SDS011;67231;59.144;37.934;2023-12-04T04:22:50;6.72;;;3.00;;
77868;SDS011;67231;59.144;37.934;2023-12-04T04:25:17;6.50;;;2.53;;
77868;SDS011;67231;59.144;37.934;2023-12-04T04:27:44;10.30;;;3.65;;
77868;SDS011;67231;59.144;37.934;2023-12-04T04:30:11;6.53;;;3.05;;
77868;SDS011;67231;59.144;37.934;2023-12-04T04:32:39;10.65;;;4.30;;
77868;SDS011;67231;59.144;37.934;2023-12-04T04:35:05;6.50;;;3.20;;
77868;SDS011;67231;59.144;37.934;2023-12-04T04:37:32;6.57;;;2.78;;
77868;SDS011;67231;59.144;37.934;2023-12-04T04:39:58;10.77;;;4.00;;
77868;SDS011;67231;59.144;37.934;2023-12-04T04:42:25;6.47;;;3.15;;
77868;SDS011;67231;59.144;37.934;2023-12-04T04:44:51;10.45;;;3.40;;
77868;SDS011;67231;59.144;37.934;2023-12-04T04:47:17;8.55;;;3.25;;
77868;SDS011;67231;59.144;37.934;2023-12-04T04:49:43;19.35;;;5.32;;
77868;SDS011;67231;59.144;37.934;2023-12-04T04:52:10;13.18;;;4.60;;
77868;SDS011;67231;59.144;37.934;2023-12-04T04:54:36;15.65;;;5.50;;
77868;SDS011;67231;59.144;37.934;2023-12-04T04:57:02;19.50;;;6.78;;
77868;SDS011;67231;59.144;37.934;2023-12-04T04:59:29;10.00;;;3.88;;
77868;SDS011;67231;59.144;37.934;2023-12-04T05:01:57;11.50;;;4.47;;
77868;SDS011;67231;59.144;37.934;2023-12-04T05:04:24;16.90;;;4.50;;
77868;SDS011;67231;59.144;37.934;2023-12-04T05:06:50;15.93;;;5.50;;
77868;SDS011;67231;59.144;37.934;2023-12-04T05:09:16;17.27;;;6.15;;
77868;SDS011;67231;59.144;37.934;2023-12-04T05:11:43;15.82;;;5.53;;
77868;SDS011;67231;59.144;37.934;2023-12-04T05:14:09;19.83;;;7.68;;
77868;SDS011;67231;59.144;37.934;2023-12-04T05:16:35;22.98;;;7.93;;
77868;SDS011;67231;59.144;37.934;2023-12-04T05:19:02;22.17;;;7.50;;
77868;SDS011;67231;59.144;37.934;2023-12-04T05:21:28;21.88;;;7.93;;
77868;SDS011;67231;59.144;37.934;2023-12-04T05:23:55;22.77;;;7.72;;
77868;SDS011;67231;59.144;37.934;2023-12-04T05:26:21;23.13;;;9.32;;
77868;SDS011;67231;59.144;37.934;2023-12-04T05:28:47;27.45;;;9.07;;
77868;SDS011;67231;59.144;37.934;2023-12-04T05:31:14;25.38;;;10.30;;
77868;SDS011;67231;59.144;37.934;2023-12-04T05:33:40;20.00;;;8.18;;
77868;SDS011;67231;59.144;37.934;2023-12-04T05:36:06;14.32;;;6.80;;
77868;SDS011;67231;59.144;37.934;2023-12-04T05:38:33;14.98;;;6.60;;
77868;SDS011;67231;59.144;37.934;2023-12-04T05:40:59;12.63;;;5.20;;
77868;SDS011;67231;59.144;37.934;2023-12-04T05:43:26;10.15;;;3.67;;
77868;SDS011;67231;59.144;37.934;2023-12-04T05:45:52;12.00;;;4.68;;
77868;SDS011;67231;59.144;37.934;2023-12-04T05:48:18;12.73;;;4.32;;
77868;SDS011;67231;59.144;37.934;2023-12-04T05:50:44;10.13;;;4.25;;
77868;SDS011;67231;59.144;37.934;2023-12-04T05:53:11;11.68;;;4.88;;
77868;SDS011;67231;59.144;37.934;2023-12-04T05:55:37;14.32;;;5.22;;
77868;SDS011;67231;59.144;37.934;2023-12-04T05:58:04;14.45;;;4.40;;
77868;SDS011;67231;59.144;37.934;2023-12-04T06:00:30;16.80;;;5.65;;
77868;SDS011;67231;59.144;37.934;2023-12-04T06:02:56;17.02;;;4.80;;
77868;SDS011;67231;59.144;37.934;2023-12-04T06:05:23;20.13;;;5.75;;
77868;SDS011;67231;59.144;37.934;2023-12-04T06:07:49;18.20;;;5.35;;
77868;SDS011;67231;59.144;37.934;2023-12-04T06:10:15;18.35;;;6.25;;
77868;SDS011;67231;59.144;37.934;2023-12-04T06:12:42;19.30;;;6.07;;
77868;SDS011;67231;59.144;37.934;2023-12-04T06:15:08;14.60;;;4.90;;
77868;SDS011;67231;59.144;37.934;2023-12-04T06:17:35;12.63;;;4.82;;
77868;SDS011;67231;59.144;37.934;2023-12-04T06:20:01;17.42;;;5.07;;
77868;SDS011;67231;59.144;37.934;2023-12-04T06:22:30;11.00;;;4.85;;
77868;SDS011;67231;59.144;37.934;2023-12-04T06:24:56;18.55;;;7.40;;
77868;SDS011;67231;59.144;37.934;2023-12-04T06:27:23;10.80;;;4.75;;
77868;SDS011;67231;59.144;37.934;2023-12-04T06:29:49;22.08;;;7.18;;
77868;SDS011;67231;59.144;37.934;2023-12-04T06:32:17;25.15;;;7.25;;
77868;SDS011;67231;59.144;37.934;2023-12-04T06:34:43;21.00;;;6.65;;
77868;SDS011;67231;59.144;37.934;2023-12-04T06:37:10;31.13;;;9.68;;
77868;SDS011;67231;59.144;37.934;2023-12-04T06:39:39;29.52;;;9.15;;
77868;SDS011;67231;59.144;37.934;2023-12-04T06:42:06;23.83;;;7.13;;
77868;SDS011;67231;59.144;37.934;2023-12-04T06:44:34;16.27;;;5.80;;
77868;SDS011;67231;59.144;37.934;2023-12-04T06:47:01;17.15;;;6.63;;
77868;SDS011;67231;59.144;37.934;2023-12-04T06:49:31;17.00;;;6.60;;
77868;SDS011;67231;59.144;37.934;2023-12-04T06:51:59;14.30;;;5.90;;
77868;SDS011;67231;59.144;37.934;2023-12-04T06:54:26;17.15;;;5.10;;
77868;SDS011;67231;59.144;37.934;2023-12-04T06:56:53;9.82;;;3.60;;
77868;SDS011;67231;59.144;37.934;2023-12-04T06:59:19;14.18;;;4.88;;
77868;SDS011;67231;59.144;37.934;2023-12-04T07:01:46;16.85;;;5.38;;
77868;SDS011;67231;59.144;37.934;2023-12-04T07:04:13;12.93;;;4.95;;
77868;SDS011;67231;59.144;37.934;2023-12-04T07:06:40;13.48;;;4.57;;
77868;SDS011;67231;59.144;37.934;2023-12-04T07:09:06;16.52;;;5.70;;
77868;SDS011;67231;59.144;37.934;2023-12-04T07:11:36;13.57;;;5.57;;
77868;SDS011;67231;59.144;37.934;2023-12-04T07:14:02;15.43;;;5.65;;
77868;SDS011;67231;59.144;37.934;2023-12-04T07:16:29;19.95;;;6.68;;
77868;SDS011;67231;59.144;37.934;2023-12-04T07:18:56;24.98;;;7.93;;
77868;SDS011;67231;59.144;37.934;2023-12-04T07:21:22;40.47;;;13.60;;
77868;SDS011;67231;59.144;37.934;2023-12-04T07:23:49;46.30;;;16.40;;
77868;SDS011;67231;59.144;37.934;2023-12-04T07:26:15;47.47;;;15.07;;
77868;SDS011;67231;59.144;37.934;2023-12-04T07:28:42;36.83;;;12.68;;
77868;SDS011;67231;59.144;37.934;2023-12-04T07:31:08;34.92;;;11.23;;
77868;SDS011;67231;59.144;37.934;2023-12-04T07:33:34;29.35;;;9.98;;
77868;SDS011;67231;59.144;37.934;2023-12-04T07:36:00;20.00;;;7.88;;
77868;SDS011;67231;59.144;37.934;2023-12-04T07:38:27;22.17;;;7.63;;
77868;SDS011;67231;59.144;37.934;2023-12-04T07:40:53;10.48;;;5.25;;
77868;SDS011;67231;59.144;37.934;2023-12-04T07:43:19;19.80;;;7.00;;
77868;SDS011;67231;59.144;37.934;2023-12-04T07:45:46;22.17;;;9.20;;
77868;SDS011;67231;59.144;37.934;2023-12-04T07:48:12;23.00;;;9.27;;
77868;SDS011;67231;59.144;37.934;2023-12-04T07:50:39;20.98;;;8.65;;
77868;SDS011;67231;59.144;37.934;2023-12-04T07:53:05;26.00;;;11.88;;
77868;SDS011;67231;59.144;37.934;2023-12-04T07:55:34;26.52;;;11.07;;
77868;SDS011;67231;59.144;37.934;2023-12-04T07:58:01;22.05;;;9.18;;
77868;SDS011;67231;59.144;37.934;2023-12-04T08:00:27;27.15;;;10.38;;
77868;SDS011;67231;59.144;37.934;2023-12-04T08:02:53;36.47;;;12.95;;
77868;SDS011;67231;59.144;37.934;2023-12-04T08:05:20;36.10;;;14.68;;
77868;SDS011;67231;59.144;37.934;2023-12-04T08:07:46;39.85;;;13.77;;
77868;SDS011;67231;59.144;37.934;2023-12-04T08:10:12;30.92;;;11.25;;
77868;SDS011;67231;59.144;37.934;2023-12-04T08:12:39;36.60;;;10.80;;
77868;SDS011;67231;59.144;37.934;2023-12-04T08:15:05;32.63;;;12.25;;
77868;SDS011;67231;59.144;37.934;2023-12-04T08:17:34;35.72;;;12.38;;
77868;SDS011;67231;59.144;37.934;2023-12-04T08:20:01;24.63;;;9.15;;
77868;SDS011;67231;59.144;37.934;2023-12-04T08:22:30;21.13;;;9.15;;
77868;SDS011;67231;59.144;37.934;2023-12-04T08:24:57;21.85;;;7.95;;
77868;SDS011;67231;59.144;37.934;2023-12-04T08:27:24;28.58;;;9.48;;
77868;SDS011;67231;59.144;37.934;2023-12-04T08:29:50;27.77;;;9.82;;
77868;SDS011;67231;59.144;37.934;2023-12-04T08:32:17;27.75;;;10.63;;
77868;SDS011;67231;59.144;37.934;2023-12-04T08:34:43;19.77;;;8.18;;
77868;SDS011;67231;59.144;37.934;2023-12-04T08:37:10;16.75;;;6.07;;
77868;SDS011;67231;59.144;37.934;2023-12-04T08:39:36;17.05;;;6.25;;
77868;SDS011;67231;59.144;37.934;2023-12-04T08:42:02;17.77;;;7.28;;
77868;SDS011;67231;59.144;37.934;2023-12-04T08:44:29;22.10;;;9.18;;
77868;SDS011;67231;59.144;37.934;2023-12-04T08:46:55;27.67;;;10.55;;
77868;SDS011;67231;59.144;37.934;2023-12-04T08:49:23;24.05;;;9.82;;
77868;SDS011;67231;59.144;37.934;2023-12-04T08:51:51;28.23;;;10.40;;
77868;SDS011;67231;59.144;37.934;2023-12-04T08:54:18;29.23;;;10.95;;
77868;SDS011;67231;59.144;37.934;2023-12-04T08:56:45;31.15;;;12.27;;
77868;SDS011;67231;59.144;37.934;2023-12-04T08:59:11;31.45;;;10.73;;
77868;SDS011;67231;59.144;37.934;2023-12-04T09:01:39;35.35;;;11.93;;
77868;SDS011;67231;59.144;37.934;2023-12-04T09:04:05;29.20;;;12.82;;
77868;SDS011;67231;59.144;37.934;2023-12-04T09:06:34;32.80;;;15.40;;
77868;SDS011;67231;59.144;37.934;2023-12-04T09:09:00;36.38;;;14.43;;
77868;SDS011;67231;59.144;37.934;2023-12-04T09:11:27;34.47;;;12.90;;
77868;SDS011;67231;59.144;37.934;2023-12-04T09:13:54;29.42;;;9.80;;
77868;SDS011;67231;59.144;37.934;2023-12-04T09:16:25;39.88;;;13.50;;
77868;SDS011;67231;59.144;37.934;2023-12-04T09:18:52;32.20;;;11.73;;
77868;SDS011;67231;59.144;37.934;2023-12-04T09:21:19;22.60;;;9.02;;
77868;SDS011;67231;59.144;37.934;2023-12-04T09:23:45;28.20;;;10.85;;
77868;SDS011;67231;59.144;37.934;2023-12-04T09:28:42;28.27;;;10.63;;
77868;SDS011;67231;59.144;37.934;2023-12-04T09:31:09;19.40;;;7.63;;
77868;SDS011;67231;59.144;37.934;2023-12-04T09:33:35;21.73;;;8.32;;
77868;SDS011;67231;59.144;37.934;2023-12-04T09:36:02;20.48;;;8.50;;
77868;SDS011;67231;59.144;37.934;2023-12-04T09:38:29;28.35;;;10.65;;
77868;SDS011;67231;59.144;37.934;2023-12-04T09:40:58;23.35;;;8.63;;
77868;SDS011;67231;59.144;37.934;2023-12-04T09:43:30;16.90;;;6.57;;
77868;SDS011;67231;59.144;37.934;2023-12-04T09:46:01;19.67;;;7.20;;
77868;SDS011;67231;59.144;37.934;2023-12-04T09:48:27;16.98;;;6.85;;
77868;SDS011;67231;59.144;37.934;2023-12-04T09:50:57;13.02;;;5.40;;
77868;SDS011;67231;59.144;37.934;2023-12-04T09:53:24;12.35;;;5.10;;
77868;SDS011;67231;59.144;37.934;2023-12-04T09:55:53;7.90;;;4.15;;
77868;SDS011;67231;59.144;37.934;2023-12-04T09:58:22;15.15;;;6.07;;
77868;SDS011;67231;59.144;37.934;2023-12-04T10:00:54;11.00;;;5.05;;
77868;SDS011;67231;59.144;37.934;2023-12-04T10:03:20;12.98;;;5.90;;
77868;SDS011;67231;59.144;37.934;2023-12-04T10:05:47;27.23;;;10.30;;
77868;SDS011;67231;59.144;37.934;2023-12-04T10:08:15;11.32;;;4.93;;
77868;SDS011;67231;59.144;37.934;2023-12-04T10:10:42;16.77;;;7.60;;
77868;SDS011;67231;59.144;37.934;2023-12-04T10:13:09;21.73;;;9.23;;
77868;SDS011;67231;59.144;37.934;2023-12-04T10:15:45;22.27;;;8.43;;
77868;SDS011;67231;59.144;37.934;2023-12-04T10:20:55;10.90;;;4.97;;
77868;SDS011;67231;59.144;37.934;2023-12-04T10:23:23;7.25;;;4.05;;
77868;SDS011;67231;59.144;37.934;2023-12-04T10:26:01;12.15;;;4.30;;
77868;SDS011;67231;59.144;37.934;2023-12-04T10:28:28;18.73;;;6.28;;
77868;SDS011;67231;59.144;37.934;2023-12-04T10:30:55;11.68;;;4.05;;
77868;SDS011;67231;59.144;37.934;2023-12-04T10:33:24;11.55;;;5.35;;
77868;SDS011;67231;59.144;37.934;2023-12-04T10:35:54;15.95;;;6.32;;
77868;SDS011;67231;59.144;37.934;2023-12-04T10:38:23;9.98;;;4.05;;
77868;SDS011;67231;59.144;37.934;2023-12-04T10:40:50;13.02;;;5.18;;
77868;SDS011;67231;59.144;37.934;2023-12-04T10:43:17;9.00;;;3.45;;
77868;SDS011;67231;59.144;37.934;2023-12-04T10:45:46;9.82;;;3.65;;
77868;SDS011;67231;59.144;37.934;2023-12-04T10:48:15;7.90;;;4.00;;
77868;SDS011;67231;59.144;37.934;2023-12-04T10:50:43;8.40;;;4.18;;
77868;SDS011;67231;59.144;37.934;2023-12-04T10:53:11;11.27;;;4.30;;
77868;SDS011;67231;59.144;37.934;2023-12-04T10:55:39;5.82;;;2.67;;
77868;SDS011;67231;59.144;37.934;2023-12-04T10:58:07;8.80;;;3.45;;
77868;SDS011;67231;59.144;37.934;2023-12-04T11:00:40;7.22;;;3.50;;
77868;SDS011;67231;59.144;37.934;2023-12-04T11:03:09;6.93;;;3.60;;
77868;SDS011;67231;59.144;37.934;2023-12-04T11:05:40;5.50;;;1.85;;
77868;SDS011;67231;59.144;37.934;2023-12-04T11:08:11;6.88;;;3.30;;
77868;SDS011;67231;59.144;37.934;2023-12-04T11:11:25;8.35;;;3.40;;
77868;SDS011;67231;59.144;37.934;2023-12-04T11:13:35;12.02;;;5.20;;
77868;SDS011;67231;59.144;37.934;2023-12-04T11:16:15;13.70;;;5.22;;
77868;SDS011;67231;59.144;37.934;2023-12-04T11:18:51;14.95;;;5.18;;
77868;SDS011;67231;59.144;37.934;2023-12-04T11:21:27;10.60;;;4.57;;
77868;SDS011;67231;59.144;37.934;2023-12-04T11:23:56;11.45;;;5.25;;
77868;SDS011;67231;59.144;37.934;2023-12-04T11:26:24;13.90;;;5.40;;
77868;SDS011;67231;59.144;37.934;2023-12-04T11:28:52;14.70;;;6.75;;
77868;SDS011;67231;59.144;37.934;2023-12-04T11:31:19;16.63;;;5.97;;
77868;SDS011;67231;59.144;37.934;2023-12-04T11:33:46;16.80;;;6.57;;
77868;SDS011;67231;59.144;37.934;2023-12-04T11:36:13;16.63;;;7.20;;
77868;SDS011;67231;59.144;37.934;2023-12-04T11:38:45;25.00;;;9.73;;
77868;SDS011;67231;59.144;37.934;2023-12-04T11:41:19;16.27;;;6.45;;
77868;SDS011;67231;59.144;37.934;2023-12-04T11:43:47;32.53;;;12.40;;
77868;SDS011;67231;59.144;37.934;2023-12-04T11:46:18;28.77;;;10.57;;
77868;SDS011;67231;59.144;37.934;2023-12-04T11:48:50;33.50;;;11.20;;
77868;SDS011;67231;59.144;37.934;2023-12-04T11:54:19;13.80;;;5.32;;
77868;SDS011;67231;59.144;37.934;2023-12-04T11:59:36;12.25;;;4.82;;
77868;SDS011;67231;59.144;37.934;2023-12-04T12:04:33;14.02;;;4.97;;
77868;SDS011;67231;59.144;37.934;2023-12-04T12:07:00;15.75;;;6.60;;
77868;SDS011;67231;59.144;37.934;2023-12-04T12:09:28;14.75;;;5.95;;
77868;SDS011;67231;59.144;37.934;2023-12-04T12:11:55;16.80;;;6.88;;
77868;SDS011;67231;59.144;37.934;2023-12-04T12:14:21;15.80;;;7.43;;
77868;SDS011;67231;59.144;37.934;2023-12-04T12:16:48;19.05;;;7.78;;
77868;SDS011;67231;59.144;37.934;2023-12-04T12:19:15;19.75;;;7.18;;
77868;SDS011;67231;59.144;37.934;2023-12-04T12:21:43;12.80;;;5.90;;
77868;SDS011;67231;59.144;37.934;2023-12-04T12:24:11;11.52;;;4.50;;
77868;SDS011;67231;59.144;37.934;2023-12-04T12:26:38;11.57;;;4.65;;
77868;SDS011;67231;59.144;37.934;2023-12-04T12:29:04;9.23;;;4.30;;
77868;SDS011;67231;59.144;37.934;2023-12-04T12:31:31;13.55;;;6.10;;
77868;SDS011;67231;59.144;37.934;2023-12-04T12:33:59;12.85;;;5.50;;
77868;SDS011;67231;59.144;37.934;2023-12-04T12:36:25;16.27;;;6.38;;
77868;SDS011;67231;59.144;37.934;2023-12-04T12:38:53;20.05;;;7.40;;
77868;SDS011;67231;59.144;37.934;2023-12-04T12:41:20;12.55;;;5.35;;
77868;SDS011;67231;59.144;37.934;2023-12-04T12:43:46;18.85;;;7.07;;
77868;SDS011;67231;59.144;37.934;2023-12-04T12:46:13;23.77;;;8.63;;
77868;SDS011;67231;59.144;37.934;2023-12-04T12:48:40;26.50;;;8.63;;
77868;SDS011;67231;59.144;37.934;2023-12-04T12:51:08;33.03;;;11.35;;
77868;SDS011;67231;59.144;37.934;2023-12-04T12:53:37;22.42;;;6.97;;
77868;SDS011;67231;59.144;37.934;2023-12-04T12:56:04;44.38;;;13.40;;
77868;SDS011;67231;59.144;37.934;2023-12-04T12:58:31;35.05;;;11.90;;
77868;SDS011;67231;59.144;37.934;2023-12-04T13:01:00;32.97;;;10.45;;
77868;SDS011;67231;59.144;37.934;2023-12-04T13:03:28;19.15;;;8.00;;
77868;SDS011;67231;59.144;37.934;2023-12-04T13:05:58;19.65;;;7.88;;
77868;SDS011;67231;59.144;37.934;2023-12-04T13:08:24;22.42;;;7.13;;
77868;SDS011;67231;59.144;37.934;2023-12-04T13:10:51;18.80;;;7.57;;
77868;SDS011;67231;59.144;37.934;2023-12-04T13:13:18;14.23;;;5.93;;
77868;SDS011;67231;59.144;37.934;2023-12-04T13:15:45;25.10;;;8.15;;
77868;SDS011;67231;59.144;37.934;2023-12-04T13:18:12;31.23;;;9.98;;
77868;SDS011;67231;59.144;37.934;2023-12-04T13:20:39;34.30;;;10.68;;
77868;SDS011;67231;59.144;37.934;2023-12-04T13:23:05;38.60;;;12.55;;
77868;SDS011;67231;59.144;37.934;2023-12-04T13:25:32;27.58;;;9.07;;
77868;SDS011;67231;59.144;37.934;2023-12-04T13:27:58;18.75;;;6.90;;
77868;SDS011;67231;59.144;37.934;2023-12-04T13:30:25;19.88;;;7.53;;
77868;SDS011;67231;59.144;37.934;2023-12-04T13:32:51;26.25;;;9.13;;
77868;SDS011;67231;59.144;37.934;2023-12-04T13:35:18;25.15;;;8.68;;
77868;SDS011;67231;59.144;37.934;2023-12-04T13:37:45;24.30;;;8.68;;
77868;SDS011;67231;59.144;37.934;2023-12-04T13:40:12;21.92;;;7.38;;
77868;SDS011;67231;59.144;37.934;2023-12-04T13:45:27;14.95;;;5.78;;
77868;SDS011;67231;59.144;37.934;2023-12-04T13:47:53;15.30;;;6.07;;
77868;SDS011;67231;59.144;37.934;2023-12-04T13:50:20;17.05;;;6.38;;
77868;SDS011;67231;59.144;37.934;2023-12-04T13:52:46;21.38;;;7.43;;
77868;SDS011;67231;59.144;37.934;2023-12-04T13:55:21;20.77;;;7.50;;
77868;SDS011;67231;59.144;37.934;2023-12-04T13:58:03;31.23;;;10.23;;
77868;SDS011;67231;59.144;37.934;2023-12-04T14:00:29;28.13;;;10.23;;
77868;SDS011;67231;59.144;37.934;2023-12-04T14:02:56;37.15;;;13.85;;
77868;SDS011;67231;59.144;37.934;2023-12-04T14:05:33;31.35;;;11.23;;
77868;SDS011;67231;59.144;37.934;2023-12-04T14:08:00;36.05;;;12.63;;
77868;SDS011;67231;59.144;37.934;2023-12-04T14:10:27;34.78;;;11.25;;
77868;SDS011;67231;59.144;37.934;2023-12-04T14:12:54;26.55;;;9.68;;
77868;SDS011;67231;59.144;37.934;2023-12-04T14:15:21;26.88;;;10.32;;
77868;SDS011;67231;59.144;37.934;2023-12-04T14:17:47;21.58;;;8.20;;
77868;SDS011;67231;59.144;37.934;2023-12-04T14:20:15;15.95;;;6.00;;
77868;SDS011;67231;59.144;37.934;2023-12-04T14:22:44;27.90;;;9.23;;
77868;SDS011;67231;59.144;37.934;2023-12-04T14:25:12;24.00;;;7.88;;
77868;SDS011;67231;59.144;37.934;2023-12-04T14:27:38;14.45;;;5.72;;
77868;SDS011;67231;59.144;37.934;2023-12-04T14:30:06;14.50;;;6.47;;
77868;SDS011;67231;59.144;37.934;2023-12-04T14:32:35;16.17;;;6.88;;
77868;SDS011;67231;59.144;37.934;2023-12-04T14:35:06;20.48;;;7.65;;
77868;SDS011;67231;59.144;37.934;2023-12-04T14:37:36;16.23;;;6.55;;
77868;SDS011;67231;59.144;37.934;2023-12-04T14:40:03;21.83;;;7.75;;
77868;SDS011;67231;59.144;37.934;2023-12-04T14:42:30;17.92;;;5.60;;